FDX1640 KBHM-KMEM
Flight info
| Callsign | FDX1640 |
|---|---|
| Flight time | 1h 10m |
| Altitude | 6000 |
| Route | KELCC VANZE |
| Aircraft | C208/L-VGD/C |
Departure
| Time | 2026-04-22 02:05 |
|---|---|
| Airport | Birmingham-Shuttlesworth International Airport (KBHM) |
Arrival
| Time | 2026-04-22 03:16 |
|---|---|
| Airport | Memphis International Airport (KMEM) |
| Time | Latitude | Longitude | Altitude | Speed | Heading |
|---|---|---|---|---|---|
| 2026-04-22 01:52 | 33.55384 | -86.76893 | 599 ft | 0 kts | 174° |
| 2026-04-22 02:01 | 33.55379 | -86.76896 | 592 ft | 4 kts | 234° |
| 2026-04-22 02:01 | 33.55386 | -86.76907 | 599 ft | 0 kts | 3° |
| 2026-04-22 02:02 | 33.55390 | -86.76907 | 599 ft | 3 kts | 0° |
| 2026-04-22 02:02 | 33.55415 | -86.76915 | 599 ft | 0 kts | 338° |
| 2026-04-22 02:02 | 33.55423 | -86.76919 | 599 ft | 5 kts | 337° |
| 2026-04-22 02:03 | 33.55465 | -86.76972 | 598 ft | 8 kts | 261° |
| 2026-04-22 02:03 | 33.55421 | -86.77074 | 594 ft | 8 kts | 264° |
| 2026-04-22 02:03 | 33.55421 | -86.77076 | 594 ft | 0 kts | 264° |
| 2026-04-22 02:04 | 33.55515 | -86.77089 | 595 ft | 20 kts | 55° |
| 2026-04-22 02:04 | 33.55680 | -86.76804 | 603 ft | 65 kts | 54° |
| 2026-04-22 02:04 | 33.56002 | -86.76242 | 670 ft | 92 kts | 57° |
| 2026-04-22 02:05 | 33.56243 | -86.75804 | 824 ft | 93 kts | 57° |
| 2026-04-22 02:05 | 33.56606 | -86.75138 | 1046 ft | 98 kts | 56° |
| 2026-04-22 02:05 | 33.56983 | -86.74469 | 1299 ft | 96 kts | 56° |
| 2026-04-22 02:05 | 33.57348 | -86.73788 | 1495 ft | 101 kts | 58° |
| 2026-04-22 02:06 | 33.57948 | -86.73374 | 1665 ft | 111 kts | 359° |
| 2026-04-22 02:06 | 33.58693 | -86.73556 | 1960 ft | 110 kts | 338° |
| 2026-04-22 02:06 | 33.59435 | -86.73852 | 2188 ft | 114 kts | 334° |
| 2026-04-22 02:06 | 33.60087 | -86.74375 | 2416 ft | 116 kts | 313° |
| 2026-04-22 02:07 | 33.60672 | -86.75061 | 2666 ft | 119 kts | 311° |
| 2026-04-22 02:07 | 33.61274 | -86.75760 | 2909 ft | 121 kts | 312° |
| 2026-04-22 02:07 | 33.61891 | -86.76460 | 3154 ft | 123 kts | 313° |
| 2026-04-22 02:07 | 33.62514 | -86.77153 | 3445 ft | 121 kts | 314° |
| 2026-04-22 02:08 | 33.63129 | -86.77823 | 3745 ft | 118 kts | 314° |
| 2026-04-22 02:08 | 33.63736 | -86.78482 | 4043 ft | 117 kts | 315° |
| 2026-04-22 02:08 | 33.64331 | -86.79130 | 4338 ft | 114 kts | 314° |
| 2026-04-22 02:08 | 33.64911 | -86.79764 | 4633 ft | 111 kts | 313° |
| 2026-04-22 02:09 | 33.65476 | -86.80381 | 4930 ft | 109 kts | 314° |
| 2026-04-22 02:09 | 33.66028 | -86.80982 | 5229 ft | 105 kts | 314° |
| 2026-04-22 02:09 | 33.66581 | -86.81587 | 5440 ft | 111 kts | 314° |
| 2026-04-22 02:09 | 33.67168 | -86.82234 | 5644 ft | 118 kts | 314° |
| 2026-04-22 02:10 | 33.67786 | -86.82912 | 5847 ft | 123 kts | 314° |
| 2026-04-22 02:10 | 33.68443 | -86.83629 | 5958 ft | 137 kts | 315° |
| 2026-04-22 02:10 | 33.69179 | -86.84440 | 5996 ft | 150 kts | 315° |
| 2026-04-22 02:10 | 33.69977 | -86.85317 | 5991 ft | 160 kts | 315° |
| 2026-04-22 02:11 | 33.70817 | -86.86237 | 5986 ft | 166 kts | 315° |
| 2026-04-22 02:11 | 33.71684 | -86.87183 | 5981 ft | 170 kts | 316° |
| 2026-04-22 02:11 | 33.72563 | -86.88141 | 5974 ft | 171 kts | 316° |
| 2026-04-22 02:11 | 33.73448 | -86.89107 | 5973 ft | 172 kts | 316° |
| 2026-04-22 02:12 | 33.74335 | -86.90077 | 5975 ft | 173 kts | 316° |
| 2026-04-22 02:12 | 33.75227 | -86.91050 | 5956 ft | 174 kts | 316° |
| 2026-04-22 02:12 | 33.76122 | -86.92024 | 5958 ft | 174 kts | 316° |
| 2026-04-22 02:12 | 33.77016 | -86.93003 | 5962 ft | 174 kts | 315° |
| 2026-04-22 02:13 | 33.77909 | -86.93982 | 5963 ft | 174 kts | 315° |
| 2026-04-22 02:13 | 33.78805 | -86.94964 | 5944 ft | 175 kts | 316° |
| 2026-04-22 02:13 | 33.79708 | -86.95953 | 5944 ft | 176 kts | 316° |
| 2026-04-22 02:13 | 33.80616 | -86.96948 | 5944 ft | 177 kts | 316° |
| 2026-04-22 02:14 | 33.81526 | -86.97948 | 5941 ft | 177 kts | 316° |
| 2026-04-22 02:14 | 33.82436 | -86.98947 | 5944 ft | 177 kts | 315° |
| 2026-04-22 02:14 | 33.83348 | -86.99948 | 5945 ft | 178 kts | 316° |
| 2026-04-22 02:14 | 33.84260 | -87.00949 | 5943 ft | 177 kts | 316° |
| 2026-04-22 02:15 | 33.85159 | -87.01938 | 5943 ft | 177 kts | 315° |
| 2026-04-22 02:15 | 33.86070 | -87.02937 | 5940 ft | 177 kts | 315° |
| 2026-04-22 02:15 | 33.86980 | -87.03937 | 5950 ft | 177 kts | 315° |
| 2026-04-22 02:15 | 33.87890 | -87.04940 | 5951 ft | 177 kts | 315° |
| 2026-04-22 02:16 | 33.88800 | -87.05941 | 5954 ft | 177 kts | 315° |
| 2026-04-22 02:16 | 33.89711 | -87.06944 | 5953 ft | 177 kts | 315° |
| 2026-04-22 02:16 | 33.90622 | -87.07947 | 5951 ft | 177 kts | 315° |
| 2026-04-22 02:16 | 33.91531 | -87.08948 | 5953 ft | 177 kts | 315° |
| 2026-04-22 02:17 | 33.92442 | -87.09950 | 5958 ft | 177 kts | 315° |
| 2026-04-22 02:17 | 33.93348 | -87.10948 | 5927 ft | 176 kts | 315° |
| 2026-04-22 02:17 | 33.94251 | -87.11942 | 5927 ft | 176 kts | 315° |
| 2026-04-22 02:17 | 33.95124 | -87.12966 | 5928 ft | 174 kts | 306° |
| 2026-04-22 02:18 | 33.95684 | -87.14234 | 5928 ft | 171 kts | 286° |
| 2026-04-22 02:18 | 33.96118 | -87.15568 | 5927 ft | 172 kts | 290° |
| 2026-04-22 02:18 | 33.96622 | -87.16873 | 5929 ft | 172 kts | 292° |
| 2026-04-22 02:18 | 33.97146 | -87.18172 | 5927 ft | 172 kts | 293° |
| 2026-04-22 02:19 | 33.97668 | -87.19473 | 5973 ft | 172 kts | 292° |
| 2026-04-22 02:19 | 33.98183 | -87.20776 | 5973 ft | 172 kts | 292° |
| 2026-04-22 02:19 | 33.98694 | -87.22081 | 5975 ft | 172 kts | 292° |
| 2026-04-22 02:19 | 33.99198 | -87.23391 | 5974 ft | 172 kts | 291° |
| 2026-04-22 02:20 | 33.99699 | -87.24700 | 5979 ft | 172 kts | 291° |
| 2026-04-22 02:20 | 34.00201 | -87.26013 | 5975 ft | 172 kts | 291° |
| 2026-04-22 02:20 | 34.00701 | -87.27325 | 5975 ft | 172 kts | 291° |
| 2026-04-22 02:20 | 34.01201 | -87.28641 | 5975 ft | 172 kts | 291° |
| 2026-04-22 02:21 | 34.01699 | -87.29954 | 5971 ft | 172 kts | 291° |
| 2026-04-22 02:21 | 34.02197 | -87.31266 | 5972 ft | 172 kts | 291° |
| 2026-04-22 02:21 | 34.02694 | -87.32576 | 5971 ft | 172 kts | 291° |
| 2026-04-22 02:21 | 34.03190 | -87.33885 | 5983 ft | 171 kts | 290° |
| 2026-04-22 02:22 | 34.03679 | -87.35174 | 5979 ft | 171 kts | 290° |
| 2026-04-22 02:22 | 34.04179 | -87.36495 | 5974 ft | 171 kts | 290° |
| 2026-04-22 02:22 | 34.04666 | -87.37780 | 5972 ft | 171 kts | 290° |
| 2026-04-22 02:22 | 34.05160 | -87.39081 | 5970 ft | 171 kts | 290° |
| 2026-04-22 02:23 | 34.05653 | -87.40382 | 5970 ft | 170 kts | 290° |
| 2026-04-22 02:23 | 34.06144 | -87.41682 | 5965 ft | 170 kts | 290° |
| 2026-04-22 02:23 | 34.06634 | -87.42979 | 5962 ft | 170 kts | 290° |
| 2026-04-22 02:23 | 34.07126 | -87.44278 | 5966 ft | 171 kts | 290° |
| 2026-04-22 02:24 | 34.07617 | -87.45582 | 5959 ft | 171 kts | 290° |
| 2026-04-22 02:24 | 34.08112 | -87.46886 | 5956 ft | 171 kts | 290° |
| 2026-04-22 02:24 | 34.08605 | -87.48191 | 5954 ft | 171 kts | 290° |
| 2026-04-22 02:24 | 34.09098 | -87.49495 | 5948 ft | 171 kts | 290° |
| 2026-04-22 02:25 | 34.09591 | -87.50800 | 5950 ft | 171 kts | 290° |
| 2026-04-22 02:25 | 34.10083 | -87.52105 | 5943 ft | 171 kts | 290° |
| 2026-04-22 02:25 | 34.10574 | -87.53408 | 5942 ft | 170 kts | 290° |
| 2026-04-22 02:25 | 34.11065 | -87.54710 | 5941 ft | 170 kts | 290° |
| 2026-04-22 02:26 | 34.11557 | -87.56012 | 5939 ft | 171 kts | 290° |
| 2026-04-22 02:26 | 34.12048 | -87.57315 | 5939 ft | 171 kts | 290° |
| 2026-04-22 02:26 | 34.12539 | -87.58621 | 5931 ft | 171 kts | 290° |
| 2026-04-22 02:26 | 34.13030 | -87.59922 | 5931 ft | 171 kts | 290° |
| 2026-04-22 02:27 | 34.13521 | -87.61227 | 5928 ft | 171 kts | 290° |
| 2026-04-22 02:27 | 34.14012 | -87.62534 | 5925 ft | 171 kts | 290° |
| 2026-04-22 02:27 | 34.14503 | -87.63840 | 5924 ft | 171 kts | 290° |
| 2026-04-22 02:27 | 34.14995 | -87.65148 | 5922 ft | 171 kts | 290° |
| 2026-04-22 02:28 | 34.15487 | -87.66455 | 5922 ft | 171 kts | 290° |
| 2026-04-22 02:28 | 34.15980 | -87.67761 | 5923 ft | 171 kts | 290° |
| 2026-04-22 02:28 | 34.16473 | -87.69065 | 5924 ft | 171 kts | 290° |
| 2026-04-22 02:28 | 34.16963 | -87.70368 | 5920 ft | 171 kts | 290° |
| 2026-04-22 02:29 | 34.17451 | -87.71670 | 5920 ft | 170 kts | 290° |
| 2026-04-22 02:29 | 34.17940 | -87.72971 | 5922 ft | 170 kts | 290° |
| 2026-04-22 02:29 | 34.18427 | -87.74269 | 5920 ft | 170 kts | 290° |
| 2026-04-22 02:29 | 34.18907 | -87.75552 | 5923 ft | 170 kts | 290° |
| 2026-04-22 02:30 | 34.19393 | -87.76853 | 5926 ft | 170 kts | 290° |
| 2026-04-22 02:30 | 34.19881 | -87.78154 | 5932 ft | 170 kts | 290° |
| 2026-04-22 02:30 | 34.20365 | -87.79448 | 5931 ft | 169 kts | 289° |
| 2026-04-22 02:30 | 34.20845 | -87.80736 | 5925 ft | 168 kts | 289° |
| 2026-04-22 02:31 | 34.21323 | -87.82017 | 5927 ft | 167 kts | 289° |
| 2026-04-22 02:31 | 34.21803 | -87.83299 | 5921 ft | 167 kts | 290° |
| 2026-04-22 02:31 | 34.22282 | -87.84577 | 5925 ft | 167 kts | 289° |
| 2026-04-22 02:31 | 34.22758 | -87.85845 | 5964 ft | 165 kts | 289° |
| 2026-04-22 02:32 | 34.23230 | -87.87108 | 5985 ft | 165 kts | 289° |
| 2026-04-22 02:32 | 34.23701 | -87.88372 | 5992 ft | 166 kts | 289° |
| 2026-04-22 02:32 | 34.24175 | -87.89644 | 5998 ft | 166 kts | 289° |
| 2026-04-22 02:32 | 34.24650 | -87.90918 | 6001 ft | 167 kts | 289° |
| 2026-04-22 02:33 | 34.25127 | -87.92195 | 5999 ft | 167 kts | 289° |
| 2026-04-22 02:33 | 34.25604 | -87.93474 | 6001 ft | 167 kts | 289° |
| 2026-04-22 02:33 | 34.26082 | -87.94751 | 6003 ft | 167 kts | 289° |
| 2026-04-22 02:33 | 34.26559 | -87.96033 | 6005 ft | 167 kts | 289° |
| 2026-04-22 02:34 | 34.27036 | -87.97317 | 5997 ft | 167 kts | 289° |
| 2026-04-22 02:34 | 34.27512 | -87.98597 | 5997 ft | 167 kts | 289° |
| 2026-04-22 02:34 | 34.27987 | -87.99876 | 6000 ft | 167 kts | 289° |
| 2026-04-22 02:34 | 34.28462 | -88.01154 | 6001 ft | 167 kts | 289° |
| 2026-04-22 02:35 | 34.28937 | -88.02433 | 5997 ft | 167 kts | 289° |
| 2026-04-22 02:35 | 34.29412 | -88.03713 | 5997 ft | 167 kts | 289° |
| 2026-04-22 02:35 | 34.29887 | -88.04993 | 6002 ft | 167 kts | 289° |
| 2026-04-22 02:35 | 34.30365 | -88.06279 | 6002 ft | 168 kts | 289° |
| 2026-04-22 02:36 | 34.30841 | -88.07565 | 6002 ft | 167 kts | 289° |
| 2026-04-22 02:36 | 34.31318 | -88.08851 | 6004 ft | 167 kts | 289° |
| 2026-04-22 02:36 | 34.31797 | -88.10137 | 6005 ft | 168 kts | 289° |
| 2026-04-22 02:36 | 34.32275 | -88.11427 | 6001 ft | 168 kts | 289° |
| 2026-04-22 02:37 | 34.32752 | -88.12715 | 6001 ft | 168 kts | 289° |
| 2026-04-22 02:37 | 34.33229 | -88.14004 | 6004 ft | 168 kts | 289° |
| 2026-04-22 02:37 | 34.33707 | -88.15289 | 6005 ft | 168 kts | 289° |
| 2026-04-22 02:37 | 34.34184 | -88.16577 | 6003 ft | 168 kts | 289° |
| 2026-04-22 02:38 | 34.34660 | -88.17864 | 6001 ft | 168 kts | 289° |
| 2026-04-22 02:38 | 34.35136 | -88.19152 | 6000 ft | 168 kts | 289° |
| 2026-04-22 02:38 | 34.35612 | -88.20440 | 6002 ft | 168 kts | 289° |
| 2026-04-22 02:38 | 34.36089 | -88.21730 | 6001 ft | 168 kts | 289° |
| 2026-04-22 02:39 | 34.36566 | -88.23020 | 6004 ft | 168 kts | 289° |
| 2026-04-22 02:39 | 34.37043 | -88.24313 | 6003 ft | 168 kts | 289° |
| 2026-04-22 02:39 | 34.37522 | -88.25605 | 6000 ft | 168 kts | 289° |
| 2026-04-22 02:39 | 34.37998 | -88.26897 | 6003 ft | 168 kts | 289° |
| 2026-04-22 02:40 | 34.38475 | -88.28188 | 5999 ft | 168 kts | 289° |
| 2026-04-22 02:40 | 34.38951 | -88.29479 | 6000 ft | 168 kts | 289° |
| 2026-04-22 02:40 | 34.39426 | -88.30768 | 6000 ft | 168 kts | 289° |
| 2026-04-22 02:40 | 34.39902 | -88.32059 | 6004 ft | 168 kts | 289° |
| 2026-04-22 02:41 | 34.40377 | -88.33349 | 6002 ft | 168 kts | 289° |
| 2026-04-22 02:41 | 34.40850 | -88.34640 | 6003 ft | 168 kts | 289° |
| 2026-04-22 02:41 | 34.41323 | -88.35931 | 6009 ft | 168 kts | 289° |
| 2026-04-22 02:41 | 34.41797 | -88.37222 | 6009 ft | 168 kts | 289° |
| 2026-04-22 02:42 | 34.42269 | -88.38511 | 6008 ft | 168 kts | 289° |
| 2026-04-22 02:42 | 34.42745 | -88.39804 | 6009 ft | 168 kts | 289° |
| 2026-04-22 02:42 | 34.43220 | -88.41099 | 6007 ft | 168 kts | 289° |
| 2026-04-22 02:42 | 34.43696 | -88.42392 | 6005 ft | 168 kts | 289° |
| 2026-04-22 02:43 | 34.44175 | -88.43681 | 6009 ft | 168 kts | 289° |
| 2026-04-22 02:43 | 34.44651 | -88.44972 | 6012 ft | 168 kts | 289° |
| 2026-04-22 02:43 | 34.45125 | -88.46265 | 6012 ft | 168 kts | 289° |
| 2026-04-22 02:43 | 34.45592 | -88.47542 | 6008 ft | 168 kts | 288° |
| 2026-04-22 02:44 | 34.46067 | -88.48841 | 6003 ft | 169 kts | 288° |
| 2026-04-22 02:44 | 34.46541 | -88.50142 | 6002 ft | 169 kts | 288° |
| 2026-04-22 02:44 | 34.47017 | -88.51441 | 6009 ft | 168 kts | 288° |
| 2026-04-22 02:44 | 34.47490 | -88.52730 | 6005 ft | 167 kts | 288° |
| 2026-04-22 02:45 | 34.47959 | -88.54013 | 6006 ft | 166 kts | 288° |
| 2026-04-22 02:45 | 34.48427 | -88.55294 | 6004 ft | 166 kts | 288° |
| 2026-04-22 02:45 | 34.48893 | -88.56569 | 6005 ft | 165 kts | 288° |
| 2026-04-22 02:45 | 34.49359 | -88.57842 | 6007 ft | 165 kts | 288° |
| 2026-04-22 02:46 | 34.49824 | -88.59116 | 6005 ft | 165 kts | 288° |
| 2026-04-22 02:46 | 34.50289 | -88.60390 | 6005 ft | 165 kts | 288° |
| 2026-04-22 02:46 | 34.50753 | -88.61661 | 6005 ft | 165 kts | 288° |
| 2026-04-22 02:46 | 34.51219 | -88.62934 | 6004 ft | 165 kts | 288° |
| 2026-04-22 02:47 | 34.51683 | -88.64205 | 6003 ft | 165 kts | 288° |
| 2026-04-22 02:47 | 34.52146 | -88.65474 | 6003 ft | 165 kts | 287° |
| 2026-04-22 02:47 | 34.52607 | -88.66743 | 6004 ft | 165 kts | 287° |
| 2026-04-22 02:47 | 34.53068 | -88.68016 | 6006 ft | 165 kts | 287° |
| 2026-04-22 02:48 | 34.53533 | -88.69292 | 6005 ft | 165 kts | 287° |
| 2026-04-22 02:48 | 34.54000 | -88.70567 | 6004 ft | 166 kts | 287° |
| 2026-04-22 02:48 | 34.54467 | -88.71844 | 6004 ft | 166 kts | 287° |
| 2026-04-22 02:48 | 34.54934 | -88.73122 | 6003 ft | 166 kts | 287° |
| 2026-04-22 02:49 | 34.55398 | -88.74400 | 5999 ft | 166 kts | 287° |
| 2026-04-22 02:49 | 34.55861 | -88.75679 | 6000 ft | 166 kts | 287° |
| 2026-04-22 02:49 | 34.56324 | -88.76959 | 5998 ft | 166 kts | 287° |
| 2026-04-22 02:49 | 34.56787 | -88.78240 | 6003 ft | 166 kts | 287° |
| 2026-04-22 02:50 | 34.57253 | -88.79522 | 6006 ft | 166 kts | 287° |
| 2026-04-22 02:50 | 34.57722 | -88.80803 | 6002 ft | 166 kts | 288° |
| 2026-04-22 02:50 | 34.58238 | -88.82061 | 6001 ft | 167 kts | 291° |
| 2026-04-22 02:50 | 34.58784 | -88.83305 | 6002 ft | 167 kts | 292° |
| 2026-04-22 02:51 | 34.59341 | -88.84546 | 6005 ft | 168 kts | 292° |
| 2026-04-22 02:51 | 34.59904 | -88.85785 | 6003 ft | 167 kts | 292° |
| 2026-04-22 02:51 | 34.60473 | -88.87009 | 6003 ft | 166 kts | 292° |
| 2026-04-22 02:51 | 34.61042 | -88.88228 | 6005 ft | 166 kts | 292° |
| 2026-04-22 02:52 | 34.61603 | -88.89429 | 6004 ft | 166 kts | 292° |
| 2026-04-22 02:52 | 34.62171 | -88.90644 | 6004 ft | 165 kts | 292° |
| 2026-04-22 02:52 | 34.62739 | -88.91859 | 6001 ft | 165 kts | 292° |
| 2026-04-22 02:52 | 34.63307 | -88.93071 | 5999 ft | 165 kts | 292° |
| 2026-04-22 02:53 | 34.63876 | -88.94284 | 5999 ft | 165 kts | 292° |
| 2026-04-22 02:53 | 34.64259 | -88.95101 | 5998 ft | 165 kts | 292° |
| 2026-04-22 02:53 | 34.64863 | -88.96291 | 5999 ft | 166 kts | 296° |
| 2026-04-22 02:53 | 34.65495 | -88.97442 | 6000 ft | 166 kts | 297° |
| 2026-04-22 02:54 | 34.66146 | -88.98604 | 5997 ft | 166 kts | 297° |
| 2026-04-22 02:54 | 34.66802 | -88.99760 | 5994 ft | 166 kts | 297° |
| 2026-04-22 02:54 | 34.67459 | -89.00911 | 5994 ft | 166 kts | 297° |
| 2026-04-22 02:54 | 34.68118 | -89.02062 | 5997 ft | 166 kts | 297° |
| 2026-04-22 02:55 | 34.68778 | -89.03215 | 6001 ft | 166 kts | 297° |
| 2026-04-22 02:55 | 34.69438 | -89.04364 | 6002 ft | 166 kts | 297° |
| 2026-04-22 02:55 | 34.70099 | -89.05517 | 6002 ft | 166 kts | 297° |
| 2026-04-22 02:55 | 34.70759 | -89.06669 | 6000 ft | 166 kts | 297° |
| 2026-04-22 02:56 | 34.71418 | -89.07822 | 6000 ft | 166 kts | 298° |
| 2026-04-22 02:56 | 34.72076 | -89.08974 | 6000 ft | 166 kts | 297° |
| 2026-04-22 02:56 | 34.72735 | -89.10124 | 6001 ft | 166 kts | 298° |
| 2026-04-22 02:56 | 34.73396 | -89.11275 | 6004 ft | 166 kts | 297° |
| 2026-04-22 02:57 | 34.74073 | -89.12409 | 5994 ft | 165 kts | 298° |
| 2026-04-22 02:57 | 34.74745 | -89.13525 | 5996 ft | 164 kts | 298° |
| 2026-04-22 02:57 | 34.75417 | -89.14644 | 6000 ft | 164 kts | 298° |
| 2026-04-22 02:57 | 34.76082 | -89.15763 | 5998 ft | 163 kts | 296° |
| 2026-04-22 02:58 | 34.76694 | -89.16916 | 6001 ft | 162 kts | 294° |
| 2026-04-22 02:58 | 34.77286 | -89.18083 | 5996 ft | 162 kts | 293° |
| 2026-04-22 02:58 | 34.77868 | -89.19251 | 5995 ft | 161 kts | 293° |
| 2026-04-22 02:58 | 34.78445 | -89.20422 | 5999 ft | 161 kts | 293° |
| 2026-04-22 02:59 | 34.79021 | -89.21595 | 5999 ft | 162 kts | 293° |
| 2026-04-22 02:59 | 34.79596 | -89.22770 | 5997 ft | 162 kts | 293° |
| 2026-04-22 02:59 | 34.80172 | -89.23944 | 6006 ft | 162 kts | 292° |
| 2026-04-22 02:59 | 34.80761 | -89.25124 | 6000 ft | 164 kts | 293° |
| 2026-04-22 03:00 | 34.81347 | -89.26291 | 5998 ft | 164 kts | 292° |
| 2026-04-22 03:00 | 34.81942 | -89.27478 | 6003 ft | 165 kts | 293° |
| 2026-04-22 03:00 | 34.82538 | -89.28667 | 5999 ft | 165 kts | 293° |
| 2026-04-22 03:00 | 34.83133 | -89.29857 | 5997 ft | 164 kts | 293° |
| 2026-04-22 03:01 | 34.83729 | -89.31045 | 5999 ft | 164 kts | 293° |
| 2026-04-22 03:01 | 34.84325 | -89.32237 | 6001 ft | 165 kts | 293° |
| 2026-04-22 03:01 | 34.84922 | -89.33432 | 6000 ft | 165 kts | 293° |
| 2026-04-22 03:01 | 34.85518 | -89.34630 | 5997 ft | 166 kts | 293° |
| 2026-04-22 03:02 | 34.86115 | -89.35831 | 5995 ft | 166 kts | 293° |
| 2026-04-22 03:02 | 34.86711 | -89.37029 | 5993 ft | 165 kts | 293° |
| 2026-04-22 03:02 | 34.87306 | -89.38225 | 5992 ft | 165 kts | 293° |
| 2026-04-22 03:02 | 34.87902 | -89.39422 | 5994 ft | 165 kts | 293° |
| 2026-04-22 03:03 | 34.88523 | -89.40602 | 5992 ft | 169 kts | 301° |
| 2026-04-22 03:03 | 34.89376 | -89.41609 | 5994 ft | 172 kts | 309° |
| 2026-04-22 03:03 | 34.90282 | -89.42568 | 5994 ft | 173 kts | 311° |
| 2026-04-22 03:03 | 34.91206 | -89.43503 | 5992 ft | 173 kts | 312° |
| 2026-04-22 03:04 | 34.92099 | -89.44470 | 5995 ft | 169 kts | 303° |
| 2026-04-22 03:04 | 34.92859 | -89.45579 | 5862 ft | 173 kts | 300° |
| 2026-04-22 03:04 | 34.93604 | -89.46745 | 5668 ft | 175 kts | 299° |
| 2026-04-22 03:04 | 34.94329 | -89.47944 | 5474 ft | 175 kts | 296° |
| 2026-04-22 03:05 | 34.94993 | -89.49190 | 5278 ft | 175 kts | 294° |
| 2026-04-22 03:05 | 34.95636 | -89.50451 | 5081 ft | 175 kts | 294° |
| 2026-04-22 03:05 | 34.96275 | -89.51713 | 4873 ft | 176 kts | 295° |
| 2026-04-22 03:05 | 34.96967 | -89.52928 | 4770 ft | 172 kts | 298° |
| 2026-04-22 03:06 | 34.97619 | -89.54122 | 4692 ft | 167 kts | 294° |
| 2026-04-22 03:06 | 34.98133 | -89.55366 | 4582 ft | 162 kts | 284° |
| 2026-04-22 03:06 | 34.98398 | -89.56668 | 4491 ft | 156 kts | 271° |
| 2026-04-22 03:06 | 34.98523 | -89.57976 | 4428 ft | 154 kts | 269° |
| 2026-04-22 03:07 | 34.98599 | -89.59262 | 4393 ft | 152 kts | 266° |
| 2026-04-22 03:07 | 34.98621 | -89.60554 | 4321 ft | 152 kts | 264° |
| 2026-04-22 03:07 | 34.98611 | -89.61836 | 4318 ft | 150 kts | 262° |
| 2026-04-22 03:07 | 34.98559 | -89.63114 | 4311 ft | 149 kts | 261° |
| 2026-04-22 03:08 | 34.98512 | -89.64359 | 4359 ft | 148 kts | 262° |
| 2026-04-22 03:08 | 34.98457 | -89.65644 | 4237 ft | 155 kts | 260° |
| 2026-04-22 03:08 | 34.98397 | -89.66959 | 4186 ft | 155 kts | 262° |
| 2026-04-22 03:08 | 34.98381 | -89.68260 | 4211 ft | 152 kts | 263° |
| 2026-04-22 03:09 | 34.98368 | -89.69548 | 4188 ft | 152 kts | 264° |
| 2026-04-22 03:09 | 34.98368 | -89.70822 | 4233 ft | 149 kts | 264° |
| 2026-04-22 03:09 | 34.98383 | -89.72101 | 4187 ft | 153 kts | 265° |
| 2026-04-22 03:09 | 34.98392 | -89.73410 | 4138 ft | 155 kts | 264° |
| 2026-04-22 03:10 | 34.98385 | -89.74730 | 3992 ft | 160 kts | 263° |
| 2026-04-22 03:10 | 34.98336 | -89.76097 | 3850 ft | 162 kts | 262° |
| 2026-04-22 03:10 | 34.98292 | -89.77495 | 3739 ft | 163 kts | 262° |
| 2026-04-22 03:10 | 34.98232 | -89.78867 | 3516 ft | 164 kts | 261° |
| 2026-04-22 03:11 | 34.98162 | -89.80245 | 3333 ft | 161 kts | 261° |
| 2026-04-22 03:11 | 34.98107 | -89.81604 | 3143 ft | 160 kts | 262° |
| 2026-04-22 03:11 | 34.98057 | -89.82960 | 2949 ft | 160 kts | 262° |
| 2026-04-22 03:11 | 34.97984 | -89.84328 | 2668 ft | 164 kts | 261° |
| 2026-04-22 03:12 | 34.97935 | -89.85625 | 2519 ft | 145 kts | 262° |
| 2026-04-22 03:12 | 34.97868 | -89.87995 | 2236 ft | 137 kts | 263° |
| 2026-04-22 03:12 | 34.97846 | -89.89155 | 2083 ft | 137 kts | 262° |
| 2026-04-22 03:13 | 34.97821 | -89.90322 | 1913 ft | 138 kts | 264° |
| 2026-04-22 03:13 | 34.97840 | -89.91489 | 1705 ft | 137 kts | 265° |
| 2026-04-22 03:13 | 34.97823 | -89.92606 | 1490 ft | 130 kts | 265° |
| 2026-04-22 03:13 | 34.97839 | -89.93692 | 1330 ft | 121 kts | 267° |
| 2026-04-22 03:14 | 34.97889 | -89.94643 | 1263 ft | 108 kts | 274° |
| 2026-04-22 03:14 | 34.98246 | -89.95452 | 1189 ft | 113 kts | 305° |
| 2026-04-22 03:14 | 34.98766 | -89.96164 | 1085 ft | 107 kts | 309° |
| 2026-04-22 03:14 | 34.99304 | -89.96742 | 952 ft | 98 kts | 322° |
| 2026-04-22 03:15 | 34.99907 | -89.97076 | 831 ft | 95 kts | 340° |
| 2026-04-22 03:15 | 35.00551 | -89.97207 | 754 ft | 92 kts | 355° |
| 2026-04-22 03:15 | 35.01188 | -89.97232 | 649 ft | 91 kts | 359° |
| 2026-04-22 03:15 | 35.01773 | -89.97235 | 530 ft | 81 kts | 0° |
| 2026-04-22 03:16 | 35.02333 | -89.97245 | 369 ft | 78 kts | 358° |
| 2026-04-22 03:16 | 35.02796 | -89.97254 | 328 ft | 47 kts | 360° |
| 2026-04-22 03:16 | 35.03117 | -89.97260 | 328 ft | 45 kts | 354° |
| 2026-04-22 03:16 | 35.03165 | -89.97373 | 328 ft | 14 kts | 281° |
| 2026-04-22 03:17 | 35.03166 | -89.97382 | 328 ft | 0 kts | 282° |
| 2026-04-22 03:18 | 35.03168 | -89.97391 | 328 ft | 5 kts | 282° |
| 2026-04-22 03:18 | 35.03235 | -89.97438 | 326 ft | 19 kts | 358° |
| 2026-04-22 03:18 | 35.03392 | -89.97442 | 324 ft | 25 kts | 359° |
| 2026-04-22 03:18 | 35.03574 | -89.97445 | 326 ft | 30 kts | 359° |
| 2026-04-22 03:19 | 35.03777 | -89.97449 | 326 ft | 34 kts | 359° |
| 2026-04-22 03:19 | 35.04002 | -89.97454 | 326 ft | 32 kts | 359° |
| 2026-04-22 03:19 | 35.04212 | -89.97458 | 327 ft | 24 kts | 359° |
| 2026-04-22 03:19 | 35.04412 | -89.97463 | 325 ft | 26 kts | 358° |
| 2026-04-22 03:20 | 35.04609 | -89.97466 | 326 ft | 27 kts | 359° |
| 2026-04-22 03:20 | 35.04819 | -89.97471 | 326 ft | 32 kts | 359° |
| 2026-04-22 03:20 | 35.05036 | -89.97475 | 326 ft | 29 kts | 359° |
| 2026-04-22 03:20 | 35.05263 | -89.97480 | 326 ft | 29 kts | 359° |
| 2026-04-22 03:21 | 35.05410 | -89.97483 | 327 ft | 25 kts | 359° |
| 2026-04-22 03:21 | 35.05588 | -89.97487 | 328 ft | 25 kts | 359° |
| 2026-04-22 03:21 | 35.05670 | -89.97618 | 329 ft | 28 kts | 271° |
| 2026-04-22 03:21 | 35.05677 | -89.97852 | 329 ft | 31 kts | 272° |
| 2026-04-22 03:22 | 35.05685 | -89.98106 | 329 ft | 33 kts | 272° |
| 2026-04-22 03:22 | 35.05691 | -89.98359 | 329 ft | 29 kts | 272° |
| 2026-04-22 03:22 | 35.05744 | -89.98507 | 328 ft | 14 kts | 1° |
| 2026-04-22 03:22 | 35.05766 | -89.98507 | 328 ft | 0 kts | 1° |
| 2026-04-22 03:23 | 35.05780 | -89.98506 | 328 ft | 7 kts | 1° |
| 2026-04-22 03:23 | 35.05877 | -89.98507 | 328 ft | 20 kts | 355° |
| 2026-04-22 03:23 | 35.05970 | -89.98514 | 329 ft | 0 kts | 356° |
| 2026-04-22 03:23 | 35.06002 | -89.98518 | 329 ft | 11 kts | 352° |
| 2026-04-22 03:24 | 35.06104 | -89.98531 | 329 ft | 19 kts | 359° |
| 2026-04-22 03:24 | 35.06256 | -89.98526 | 327 ft | 22 kts | 2° |
| 2026-04-22 03:24 | 35.06367 | -89.98467 | 329 ft | 21 kts | 90° |
| 2026-04-22 03:24 | 35.06364 | -89.98310 | 329 ft | 18 kts | 92° |
| 2026-04-22 03:25 | 35.06476 | -89.98244 | 329 ft | 20 kts | 1° |
| 2026-04-22 03:25 | 35.06545 | -89.98242 | 328 ft | 0 kts | 1° |
| 2026-04-22 03:25 | 35.06577 | -89.98224 | 329 ft | 11 kts | 53° |
| 2026-04-22 03:25 | 35.06583 | -89.98089 | 329 ft | 17 kts | 92° |
| 2026-04-22 03:26 | 35.06646 | -89.98020 | 329 ft | 19 kts | 1° |
| 2026-04-22 03:26 | 35.06729 | -89.98075 | 329 ft | 16 kts | 270° |
| 2026-04-22 03:26 | 35.06700 | -89.98136 | 329 ft | 3 kts | 179° |
| 2026-04-22 03:26 | 35.06699 | -89.98136 | 329 ft | 0 kts | 179° |